This is the latest recevied weather packets stored in our database for station/object ENMS. If no packets are shown the sender has not sent any weather packets the latest 10 day(s).
| Time | Temp. | Humidity | Pressure | Rain* | Wind** | Luminosity | Snow |
|---|---|---|---|---|---|---|---|
| 1777768389 | 0.56° C | 86% | 1009 hPa | - | - | - | - |
| 1777766586 | 0.56° C | 86% | 1009 hPa | - | - | - | - |
| 1777764790 | 0.56° C | 93% | 1009 hPa | - | - | - | - |
| 1777762987 | 0.56° C | 93% | 1009 hPa | - | - | - | - |
| 1777761187 | 1.67° C | 86% | 1009 hPa | - | - | - | - |
| 1777759387 | 1.67° C | 86% | 1008 hPa | - | - | - | - |
| 1777757588 | 1.67° C | 86% | 1008 hPa | - | - | - | - |
| 1777755786 | 1.67° C | 86% | 1008 hPa | - | - | - | - |
| 1777753986 | 1.67° C | 86% | 1007 hPa | - | - | - | - |
| 1777752187 | 1.67° C | 86% | 1007 hPa | - | - | - | - |
| 1777750389 | 2.78° C | 80% | 1007 hPa | - | - | - | - |
| 1777748587 | 2.78° C | 80% | 1007 hPa | - | - | - | - |
| 1777746786 | 3.89° C | 69% | 1007 hPa | - | - | - | - |
| 1777744989 | 3.89° C | 75% | 1007 hPa | - | - | - | - |
| 1777743189 | 2.78° C | 86% | 1007 hPa | - | - | - | - |
| 1777741388 | 2.78° C | 80% | 1007 hPa | - | - | - | - |
| 1777739588 | 5° C | 70% | 1007 hPa | - | - | - | - |
| 1777737789 | 3.89° C | 80% | 1007 hPa | - | - | - | - |
| 1777735988 | 3.89° C | 80% | 1007 hPa | - | - | - | - |
| 1777734190 | 5° C | 80% | 1007 hPa | - | - | - | - |
| 1777732388 | 5° C | 65% | 1008 hPa | - | - | - | - |
| 1777730588 | 5.56° C | 60% | 1007 hPa | - | - | - | - |
| 1777728788 | 3.89° C | 75% | 1008 hPa | - | - | - | - |
| 1777726989 | 6.67° C | 52% | 1007 hPa | - | - | - | - |
| 1777725188 | 7.78° C | 42% | 1007 hPa | - | - | - | - |
* Rain since midnight (hover to see other rain measurements)
** Current wind speed in m/s (hover to see current wind gust speed)